Grand Valley, Colorado
Current Conditions -  °F | °C
As of 9:53 AM on Thursday 27 Nov 2014 (Local Time) from KRIL Reporting Station
Clear Clear  
Wind Chill: 30°   Ceiling: Unl
Heat Index: 30°   Visibility: 10mi
Dew Point: 25°   Wind: 0mph
Humidity: 82%   Direction: NA
Pressure: 30.49"   Gusts: NA
Location:  39.5849°N, 108.085°W
Report Text: KRIL 271653Z AUTO 00000KT 10SM CLR M01/M04 A3049 RMK AO2 SLP353 T10111039
Loading
Personal Weather Stations






























Interactive Weather Map New forecast layout! Learn more

10-Day Weather Forecast

Advertisements
Track Severe Weather on mobile